Time;durP1;ratioP1;P1;durP2;ratioP2;P2;SDS_P1;SDS_P2;PMS_P1;PMS_P2;Temp;Humidity;BMP_temperature;BMP_pressure;BME280_temperature;BME280_humidity;BME280_pressure;Samples;Min_cycle;Max_cycle;Signal;HPM_P1;HPM_P2
2022/09/06 00:01:38;;;;;;;2.97;2.77;;;;;;;22.88;42.01;101654.13;4940826;28;97339;-48
2022/09/06 00:04:03;;;;;;;5.30;3.40;;;;;;;22.88;41.97;101648.53;4932802;28;97331;-47
2022/09/06 00:06:28;;;;;;;3.07;2.87;;;;;;;22.91;42.08;101644.63;4936851;28;97191;-48
2022/09/06 00:08:54;;;;;;;3.60;3.33;;;;;;;22.88;42.12;101652.09;4942044;28;97162;-48
2022/09/06 00:11:19;;;;;;;3.00;2.80;;;;;;;22.87;42.11;101649.81;4929331;28;115732;-49
2022/09/06 00:13:45;;;;;;;3.23;3.03;;;;;;;22.89;42.10;101650.03;4942551;28;97017;-48
2022/09/06 00:16:14;;;;;;;3.57;3.30;;;;;;;22.89;42.21;101642.34;4946102;28;96951;-49
2022/09/06 00:18:41;;;;;;;3.03;2.83;;;;;;;22.90;42.29;101645.91;4937289;28;97030;-49
2022/09/06 00:21:22;;;;;;;3.23;3.03;;;;;;;22.88;42.71;101654.13;4926686;28;96859;-49
2022/09/06 00:23:47;;;;;;;3.20;2.90;;;;;;;22.89;42.30;101658.47;4938251;28;101675;-48
2022/09/06 00:26:13;;;;;;;4.13;3.30;;;;;;;22.90;42.20;101652.28;4936354;28;97015;-48
2022/09/06 00:28:38;;;;;;;3.53;3.27;;;;;;;22.90;42.28;101646.66;4936617;28;97098;-48
2022/09/06 00:31:12;;;;;;;3.67;3.37;;;;;;;22.91;42.54;101650.22;4940701;28;96671;-48
2022/09/06 00:33:38;;;;;;;3.30;3.10;;;;;;;22.91;42.21;101659.38;4930930;28;98382;-48
2022/09/06 00:36:03;;;;;;;3.50;3.20;;;;;;;22.89;42.27;101650.78;4942799;28;96780;-49
2022/09/06 00:38:28;;;;;;;2.83;2.70;;;;;;;22.82;42.35;101653.56;4948372;28;96837;-48
2022/09/06 00:40:54;;;;;;;3.20;2.90;;;;;;;22.77;42.46;101658.03;4944274;28;97726;-48
2022/09/06 00:43:19;;;;;;;3.00;2.87;;;;;;;22.72;42.61;101660.97;4944299;28;97436;-48
2022/09/06 00:45:45;;;;;;;2.97;2.80;;;;;;;22.69;42.62;101659.28;4939563;28;96958;-48
2022/09/06 00:48:10;;;;;;;3.70;3.50;;;;;;;22.67;42.63;101659.81;4942756;28;97423;-48
2022/09/06 00:50:36;;;;;;;2.80;2.60;;;;;;;22.68;42.63;101663.38;4946845;28;96872;-50
2022/09/06 00:53:01;;;;;;;3.40;3.10;;;;;;;22.66;42.68;101660.38;4952001;28;97202;-47
2022/09/06 00:55:27;;;;;;;3.10;2.90;;;;;;;22.64;42.62;101651.78;4942841;28;97184;-48
2022/09/06 00:57:53;;;;;;;3.00;2.80;;;;;;;22.59;42.64;101645.00;4930341;28;97150;-49
2022/09/06 01:00:19;;;;;;;2.57;2.37;;;;;;;22.56;42.71;101646.13;4930306;28;97421;-48
2022/09/06 01:02:46;;;;;;;2.97;2.80;;;;;;;22.54;42.72;101639.53;4929749;28;98434;-48
2022/09/06 01:05:12;;;;;;;4.80;2.77;;;;;;;22.53;42.77;101635.97;4949560;28;97260;-50
2022/09/06 01:07:56;;;;;;;3.73;3.27;;;;;;;22.49;43.57;101632.03;4943545;28;96982;-50
2022/09/06 01:10:40;;;;;;;3.37;3.17;;;;;;;22.46;43.08;101641.53;4942014;28;97953;-47
2022/09/06 01:13:30;;;;;;;3.10;2.90;;;;;;;22.47;43.12;101651.47;4928716;28;100899;-52
2022/09/06 01:16:10;;;;;;;3.10;2.90;;;;;;;22.46;42.83;101642.28;4942017;28;97131;-48
2022/09/06 01:19:01;;;;;;;3.53;3.30;;;;;;;22.39;43.33;101643.75;4936906;28;98536;-47
2022/09/06 01:21:54;;;;;;;3.30;3.10;;;;;;;22.27;43.45;101636.97;4939137;28;100400;-47
2022/09/06 01:24:47;;;;;;;2.80;2.70;;;;;;;22.27;43.21;101636.97;4940971;28;101674;-49
2022/09/06 01:27:18;;;;;;;3.00;2.80;;;;;;;22.27;43.11;101636.19;4939711;28;97145;-48
2022/09/06 01:29:50;;;;;;;3.13;2.93;;;;;;;22.26;43.23;101635.44;4941855;28;97756;-48
2022/09/06 01:32:27;;;;;;;2.67;2.57;;;;;;;22.22;43.47;101628.69;4934740;28;103486;-48
2022/09/06 01:35:03;;;;;;;3.60;3.30;;;;;;;22.16;43.24;101619.69;4944849;28;101731;-48
2022/09/06 01:37:28;;;;;;;3.13;2.93;;;;;;;22.14;43.22;101645.47;4945860;28;97373;-48
2022/09/06 01:39:53;;;;;;;3.37;2.87;;;;;;;22.13;43.20;101638.34;4951213;28;96883;-48
2022/09/06 01:42:26;;;;;;;3.13;2.93;;;;;;;22.15;43.79;101634.97;4946841;28;111380;-48
2022/09/06 01:44:56;;;;;;;3.27;3.07;;;;;;;22.10;43.33;101633.84;4939154;28;98675;-48
2022/09/06 01:47:21;;;;;;;2.97;2.80;;;;;;;22.05;43.28;101631.94;4942960;28;97164;-48
2022/09/06 01:50:08;;;;;;;2.97;2.77;;;;;;;22.03;44.00;101633.78;4929707;28;98386;-48
2022/09/06 01:52:55;;;;;;;3.30;3.10;;;;;;;22.04;43.50;101635.28;4939142;28;100559;-48
2022/09/06 01:55:26;;;;;;;4.23;2.83;;;;;;;22.04;43.55;101644.44;4940108;28;100119;-48
2022/09/06 01:58:08;;;;;;;3.20;3.00;;;;;;;22.05;43.76;101628.38;4946289;28;97122;-49
2022/09/06 02:00:44;;;;;;;2.90;2.70;;;;;;;22.01;43.52;101625.16;4940136;28;96812;-48
2022/09/06 02:03:36;;;;;;;4.13;3.20;;;;;;;21.97;43.82;101624.78;4925937;28;97487;-48
2022/09/06 02:06:16;;;;;;;2.90;2.70;;;;;;;21.87;44.28;101618.91;4947160;28;101645;-48
2022/09/06 02:08:59;;;;;;;3.20;2.90;;;;;;;21.81;43.92;101611.91;4940629;28;100331;-48
2022/09/06 02:11:28;;;;;;;2.87;2.67;;;;;;;21.75;43.52;101614.84;4934614;28;97012;-48
2022/09/06 02:14:05;;;;;;;3.10;2.90;;;;;;;21.71;43.97;101619.31;4944205;28;101884;-48
2022/09/06 02:16:34;;;;;;;3.27;2.97;;;;;;;21.69;43.74;101611.41;4933624;28;100143;-48
2022/09/06 02:19:09;;;;;;;2.97;2.77;;;;;;;21.67;43.93;101614.03;4948780;28;96891;-48
2022/09/06 02:21:39;;;;;;;2.93;2.77;;;;;;;21.65;43.85;101619.41;4939828;28;97374;-52
2022/09/06 02:24:07;;;;;;;3.30;3.00;;;;;;;21.63;43.85;101614.38;4940787;28;96977;-48
2022/09/06 02:26:36;;;;;;;3.30;3.00;;;;;;;21.62;43.64;101617.72;4929689;28;102985;-49
2022/09/06 02:29:02;;;;;;;3.30;3.10;;;;;;;21.61;43.69;101611.38;4933295;28;97271;-48
2022/09/06 02:31:49;;;;;;;3.47;2.90;;;;;;;21.59;43.98;101613.22;4938883;28;97101;-47
2022/09/06 02:34:18;;;;;;;2.97;2.73;;;;;;;21.48;43.94;101605.84;4944802;28;101880;-50
2022/09/06 02:36:44;;;;;;;3.90;2.60;;;;;;;21.44;43.98;101593.47;4942710;28;100259;-51
2022/09/06 02:39:11;;;;;;;3.60;3.30;;;;;;;21.41;43.88;101594.56;4929831;28;96956;-47
2022/09/06 02:41:38;;;;;;;3.10;2.80;;;;;;;21.41;43.89;101597.34;4934498;28;97151;-46
2022/09/06 02:44:03;;;;;;;3.10;2.90;;;;;;;21.41;43.92;101598.09;4939579;28;96781;-48
2022/09/06 02:46:29;;;;;;;7.40;2.80;;;;;;;21.41;43.92;101600.16;4929909;28;96936;-49
2022/09/06 02:48:54;;;;;;;3.27;3.00;;;;;;;21.39;43.82;101599.94;4934187;28;97444;-47
2022/09/06 02:51:20;;;;;;;3.33;3.00;;;;;;;21.37;43.95;101596.94;4948708;28;97681;-49
2022/09/06 02:53:45;;;;;;;3.40;3.10;;;;;;;21.35;44.12;101602.34;4943881;28;109223;-49
2022/09/06 02:56:11;;;;;;;2.60;2.50;;;;;;;21.33;43.93;101602.13;4942337;28;97454;-49
2022/09/06 02:58:36;;;;;;;3.70;3.40;;;;;;;21.30;43.96;101600.41;4945099;28;97116;-50
2022/09/06 03:01:02;;;;;;;3.10;2.63;;;;;;;21.31;44.06;101599.13;4944057;28;97276;-48
2022/09/06 03:03:27;;;;;;;2.60;2.40;;;;;;;21.36;44.06;101598.25;4950771;28;97563;-48
2022/09/06 03:05:53;;;;;;;2.67;2.47;;;;;;;21.35;44.06;101600.28;4948155;28;99078;-48
2022/09/06 03:08:22;;;;;;;2.37;2.27;;;;;;;21.33;44.01;101594.50;4937833;28;97141;-49
2022/09/06 03:10:56;;;;;;;2.70;2.50;;;;;;;21.32;44.28;101590.19;4930983;28;97526;-48
2022/09/06 03:13:23;;;;;;;2.83;2.70;;;;;;;21.31;43.94;101585.88;4945067;28;102993;-48
2022/09/06 03:15:54;;;;;;;2.70;2.50;;;;;;;21.34;44.24;101578.44;4939986;28;97240;-48
2022/09/06 03:18:20;;;;;;;2.47;2.37;;;;;;;21.35;43.94;101588.34;4940322;28;97191;-48
2022/09/06 03:20:48;;;;;;;3.93;2.70;;;;;;;21.36;43.75;101590.59;4945169;28;97342;-48
2022/09/06 03:23:13;;;;;;;2.70;2.50;;;;;;;21.37;43.82;101591.34;4942535;28;97116;-49
2022/09/06 03:25:38;;;;;;;3.77;3.00;;;;;;;21.37;43.81;101585.75;4938683;28;114763;-49
2022/09/06 03:28:04;;;;;;;3.43;3.13;;;;;;;21.37;43.67;101577.34;4949286;28;97271;-49
2022/09/06 03:30:29;;;;;;;2.50;2.40;;;;;;;21.35;43.74;101572.28;4952907;28;97238;-48
2022/09/06 03:32:55;;;;;;;3.33;3.10;;;;;;;21.32;43.74;101567.78;4944634;28;97319;-48
2022/09/06 03:35:20;;;;;;;3.27;2.87;;;;;;;21.30;43.73;101570.38;4944654;28;97285;-48
2022/09/06 03:37:45;;;;;;;3.00;2.80;;;;;;;21.28;43.51;101564.56;4943750;28;104829;-48
2022/09/06 03:40:10;;;;;;;2.70;2.50;;;;;;;21.27;43.70;101565.88;4938063;28;97676;-48
2022/09/06 03:42:36;;;;;;;3.10;2.80;;;;;;;21.24;43.50;101566.97;4944463;28;97399;-48
2022/09/06 03:45:01;;;;;;;2.30;2.20;;;;;;;21.20;43.63;101554.59;4930774;28;110059;-48
2022/09/06 03:47:26;;;;;;;2.73;2.53;;;;;;;21.20;43.63;101557.41;4940724;28;96928;-48
2022/09/06 03:49:52;;;;;;;2.60;2.40;;;;;;;21.20;43.57;101557.41;4919916;28;97403;-49
2022/09/06 03:52:17;;;;;;;2.60;2.50;;;;;;;21.20;43.52;101554.59;4935352;28;97087;-48
2022/09/06 03:54:43;;;;;;;2.93;2.70;;;;;;;21.20;43.74;101566.56;4944091;28;97366;-48
2022/09/06 03:57:09;;;;;;;3.10;2.80;;;;;;;21.21;43.76;101561.72;4927758;28;97299;-48
2022/09/06 03:59:34;;;;;;;3.90;1.97;;;;;;;21.21;43.61;101561.72;4935816;28;96938;-48
2022/09/06 04:01:59;;;;;;;2.63;2.43;;;;;;;21.21;43.50;101565.25;4952123;28;98185;-48
2022/09/06 04:04:24;;;;;;;2.50;2.40;;;;;;;21.22;43.39;101557.59;4932943;28;114080;-48
2022/09/06 04:06:50;;;;;;;2.47;2.27;;;;;;;21.20;43.42;101555.34;4935062;28;100959;-48
2022/09/06 04:09:15;;;;;;;5.20;2.50;;;;;;;21.19;43.56;101553.09;4939478;28;97254;-48
2022/09/06 04:11:41;;;;;;;2.47;2.27;;;;;;;21.16;43.53;101557.00;4949850;28;97529;-48
2022/09/06 04:14:06;;;;;;;2.33;2.23;;;;;;;21.15;43.55;101555.47;4938167;28;101720;-48
2022/09/06 04:16:32;;;;;;;2.17;2.07;;;;;;;21.16;43.32;101568.94;4926983;28;97343;-48
2022/09/06 04:18:59;;;;;;;2.60;2.50;;;;;;;21.17;43.43;101567.63;4928435;28;98055;-48
2022/09/06 04:21:25;;;;;;;2.80;2.60;;;;;;;21.17;43.40;101567.63;4940747;28;96886;-49
2022/09/06 04:23:50;;;;;;;2.80;2.70;;;;;;;21.15;43.16;101559.03;4935277;28;97360;-48
2022/09/06 04:26:16;;;;;;;2.60;2.37;;;;;;;21.11;43.31;101560.66;4929942;28;96861;-48
2022/09/06 04:28:41;;;;;;;2.60;2.50;;;;;;;21.08;43.18;101553.38;4951452;28;97305;-48
2022/09/06 04:31:07;;;;;;;2.43;2.30;;;;;;;21.06;43.29;101553.13;4947811;28;97279;-48
2022/09/06 04:33:34;;;;;;;2.20;2.10;;;;;;;21.04;43.25;101552.94;4939737;28;97366;-49
2022/09/06 04:36:01;;;;;;;5.67;2.90;;;;;;;21.06;43.40;101561.53;4933479;28;97091;-48
2022/09/06 04:38:29;;;;;;;3.03;2.77;;;;;;;21.06;43.38;101562.28;4928880;28;97423;-48
2022/09/06 04:40:54;;;;;;;3.53;2.40;;;;;;;21.07;43.02;101563.06;4940983;28;97011;-48
2022/09/06 04:43:20;;;;;;;4.07;2.50;;;;;;;21.09;43.24;101566.06;4949011;28;97120;-48
2022/09/06 04:45:46;;;;;;;2.30;2.10;;;;;;;21.10;43.28;101570.38;4952945;28;97092;-48
2022/09/06 04:48:11;;;;;;;2.97;2.77;;;;;;;21.08;43.28;101579.28;4937516;28;98175;-48
2022/09/06 04:50:37;;;;;;;2.60;2.50;;;;;;;21.08;43.00;101581.34;4934693;28;98553;-48
2022/09/06 04:53:03;;;;;;;2.33;2.13;;;;;;;21.07;43.01;101582.63;4939812;28;103828;-48
2022/09/06 04:55:30;;;;;;;2.90;2.23;;;;;;;21.07;43.05;101579.84;4938645;28;96885;-48
2022/09/06 04:57:58;;;;;;;2.40;2.30;;;;;;;21.07;42.94;101582.63;4938496;28;97535;-48
2022/09/06 05:00:25;;;;;;;2.30;2.10;;;;;;;21.05;42.95;101590.81;4928153;28;98049;-48
2022/09/06 05:02:50;;;;;;;4.23;2.80;;;;;;;21.03;43.15;101593.38;4941262;28;97191;-48
2022/09/06 05:05:16;;;;;;;3.97;2.73;;;;;;;21.00;43.01;101586.84;4939569;28;96712;-48
2022/09/06 05:07:41;;;;;;;2.07;1.97;;;;;;;21.00;42.91;101594.47;4932846;28;97565;-48
2022/09/06 05:10:06;;;;;;;2.60;2.40;;;;;;;20.98;42.93;101588.66;4935585;28;105274;-48
2022/09/06 05:12:32;;;;;;;2.07;1.97;;;;;;;20.96;43.03;101596.84;4935161;28;98454;-48
2022/09/06 05:14:57;;;;;;;2.60;2.40;;;;;;;20.95;42.92;101593.28;4943636;28;97308;-47
2022/09/06 05:17:22;;;;;;;2.40;2.20;;;;;;;20.96;43.06;101591.25;4932881;28;99404;-52
2022/09/06 05:19:48;;;;;;;2.30;2.10;;;;;;;21.00;43.00;101583.28;4937758;28;115190;-48
2022/09/06 05:22:13;;;;;;;2.33;2.13;;;;;;;21.00;42.81;101583.28;4945499;28;108056;-47
2022/09/06 05:24:38;;;;;;;2.03;1.93;;;;;;;21.02;42.87;101584.25;4947104;28;96763;-48
2022/09/06 05:27:04;;;;;;;2.10;1.90;;;;;;;21.04;42.82;101586.50;4927669;28;97585;-49
2022/09/06 05:29:30;;;;;;;2.20;2.00;;;;;;;21.03;43.02;101585.00;4928134;28;98533;-51
2022/09/06 05:31:55;;;;;;;4.63;3.10;;;;;;;21.05;43.00;101588.03;4947629;28;97415;-47
2022/09/06 05:34:21;;;;;;;2.80;2.53;;;;;;;21.03;42.96;101585.78;4956526;28;97175;-47
2022/09/06 05:36:46;;;;;;;2.10;1.90;;;;;;;21.06;42.89;101590.28;4939815;28;97044;-48
2022/09/06 05:39:11;;;;;;;4.10;2.50;;;;;;;21.03;42.80;101590.59;4932335;28;97487;-47
2022/09/06 05:41:37;;;;;;;2.37;2.17;;;;;;;21.02;42.87;101591.88;4943396;28;97040;-47
2022/09/06 05:44:02;;;;;;;2.80;2.60;;;;;;;21.02;42.78;101591.88;4941660;28;96950;-51
2022/09/06 05:46:28;;;;;;;2.40;2.20;;;;;;;21.00;42.76;101586.06;4930188;28;96983;-47
2022/09/06 05:48:56;;;;;;;3.10;2.20;;;;;;;20.99;42.81;101590.19;4945804;28;97770;-47
2022/09/06 05:51:23;;;;;;;2.90;2.70;;;;;;;20.94;42.62;101591.81;4933558;28;97055;-48
2022/09/06 05:53:48;;;;;;;2.00;1.90;;;;;;;20.95;42.82;101590.50;4928992;28;97186;-49
2022/09/06 05:56:14;;;;;;;1.90;1.80;;;;;;;20.95;42.71;101586.97;4934684;28;98279;-48
2022/09/06 05:58:40;;;;;;;1.90;1.80;;;;;;;20.93;42.74;101581.88;4949962;28;102284;-48
2022/09/06 06:01:17;;;;;;;4.93;2.47;;;;;;;20.89;42.79;101573.84;4952317;28;100688;-48
2022/09/06 06:03:50;;;;;;;2.60;2.10;;;;;;;20.91;42.84;101579.66;4953717;28;96917;-48
2022/09/06 06:06:15;;;;;;;1.93;1.83;;;;;;;20.92;42.65;101574.81;4950949;28;97195;-48
2022/09/06 06:08:40;;;;;;;1.93;1.70;;;;;;;20.89;42.88;101578.69;4947647;28;96945;-48
2022/09/06 06:11:06;;;;;;;1.90;1.80;;;;;;;20.85;42.97;101590.22;4946165;28;109756;-48
2022/09/06 06:13:38;;;;;;;3.07;2.10;;;;;;;20.87;42.90;101592.47;4949093;28;97034;-48
2022/09/06 06:16:07;;;;;;;1.90;1.80;;;;;;;20.90;42.91;101594.91;4929393;28;97164;-48
2022/09/06 06:18:33;;;;;;;3.27;1.80;;;;;;;20.88;42.82;101589.13;4950980;28;98419;-48
2022/09/06 06:21:08;;;;;;;2.37;2.10;;;;;;;20.92;42.76;101592.31;4927180;28;97358;-48
2022/09/06 06:23:33;;;;;;;1.50;1.40;;;;;;;20.94;42.65;101591.81;4953321;28;97283;-48
2022/09/06 06:25:59;;;;;;;2.33;1.90;;;;;;;20.95;42.50;101592.56;4941594;28;97121;-47
2022/09/06 06:28:24;;;;;;;2.23;1.97;;;;;;;20.90;42.52;101594.19;4937541;28;97503;-48
2022/09/06 06:30:50;;;;;;;2.03;1.93;;;;;;;20.91;42.52;101604.81;4943877;28;97184;-48
2022/09/06 06:33:15;;;;;;;2.20;2.10;;;;;;;20.93;42.63;101623.84;4943455;28;97539;-48
2022/09/06 06:35:40;;;;;;;2.17;1.90;;;;;;;20.95;42.66;101640.13;4949547;28;102196;-48
2022/09/06 06:38:05;;;;;;;3.77;2.00;;;;;;;20.98;42.75;101650.22;4949103;28;118409;-48
2022/09/06 06:40:31;;;;;;;3.80;2.20;;;;;;;21.01;42.71;101651.94;4947433;28;116560;-48
2022/09/06 06:42:56;;;;;;;2.60;2.20;;;;;;;21.03;42.54;101647.34;4950568;28;96756;-48
2022/09/06 06:45:21;;;;;;;2.07;1.90;;;;;;;21.06;42.44;101639.88;4945837;28;97405;-48
2022/09/06 06:47:50;;;;;;;3.43;1.73;;;;;;;21.03;42.62;101641.75;4939348;28;99481;-48
2022/09/06 06:50:15;;;;;;;3.77;1.77;;;;;;;21.02;42.41;101643.00;4927651;28;110193;-48
2022/09/06 06:52:41;;;;;;;1.97;1.83;;;;;;;21.00;42.44;101633.63;4947884;28;96963;-49
2022/09/06 06:55:06;;;;;;;1.93;1.60;;;;;;;20.93;42.72;101633.00;4937440;28;97882;-48
2022/09/06 06:57:32;;;;;;;2.20;2.00;;;;;;;20.88;42.61;101619.16;4944161;28;97130;-48
2022/09/06 06:59:57;;;;;;;2.27;2.07;;;;;;;20.85;42.79;101612.59;4953793;28;98340;-48
2022/09/06 07:02:22;;;;;;;2.47;1.90;;;;;;;20.82;42.89;101610.09;4944774;28;96799;-48
2022/09/06 07:04:48;;;;;;;2.23;2.13;;;;;;;20.78;42.66;101615.28;4946851;28;97001;-48
2022/09/06 07:07:13;;;;;;;3.57;2.07;;;;;;;20.77;42.78;101624.97;4930031;28;115965;-48
2022/09/06 07:09:39;;;;;;;1.90;1.80;;;;;;;20.72;42.68;101621.00;4929338;28;113961;-46
2022/09/06 07:12:04;;;;;;;2.83;2.20;;;;;;;20.75;42.99;101619.19;4942134;28;97099;-48
2022/09/06 07:14:30;;;;;;;2.07;1.70;;;;;;;20.71;42.97;101622.28;4935109;28;97118;-48
2022/09/06 07:16:57;;;;;;;2.80;1.97;;;;;;;20.69;43.22;101641.66;4931473;28;97110;-47
2022/09/06 07:19:22;;;;;;;1.90;1.80;;;;;;;20.71;43.42;101641.88;4937335;28;100376;-48
2022/09/06 07:21:48;;;;;;;3.03;1.97;;;;;;;20.72;43.54;101651.78;4943542;28;97043;-50
2022/09/06 07:24:13;;;;;;;1.93;1.83;;;;;;;20.69;44.44;101666.06;4931891;28;102730;-47
2022/09/06 07:26:39;;;;;;;2.50;2.30;;;;;;;20.57;44.82;101673.94;4928133;28;97016;-47
2022/09/06 07:29:05;;;;;;;2.80;1.93;;;;;;;20.42;45.47;101668.09;4939823;28;97184;-49
2022/09/06 07:31:32;;;;;;;8.50;2.00;;;;;;;20.25;46.08;101681.63;4930254;28;96927;-52
2022/09/06 07:33:58;;;;;;;2.00;1.90;;;;;;;20.07;46.81;101672.00;4936951;28;96914;-47
2022/09/06 07:36:23;;;;;;;2.53;2.17;;;;;;;19.91;47.30;101664.69;4957657;28;97567;-49
2022/09/06 07:38:50;;;;;;;2.30;2.20;;;;;;;19.76;47.37;101656.03;4952606;28;97506;-47
2022/09/06 07:41:18;;;;;;;3.70;1.90;;;;;;;19.58;47.88;101672.81;4931229;28;97093;-47
2022/09/06 07:43:44;;;;;;;3.47;2.60;;;;;;;19.47;48.58;101678.56;4946418;28;98367;-48
2022/09/06 07:46:13;;;;;;;2.67;2.30;;;;;;;19.39;49.03;101686.81;4950372;28;97203;-46
2022/09/06 07:48:40;;;;;;;2.33;2.13;;;;;;;19.31;49.25;101678.25;4930795;28;101377;-48
2022/09/06 07:51:08;;;;;;;3.87;2.37;;;;;;;19.21;49.36;101665.19;4936961;28;97014;-47
2022/09/06 07:53:34;;;;;;;2.40;2.20;;;;;;;19.07;49.63;101632.91;4933924;28;96806;-47
2022/09/06 07:56:00;;;;;;;2.77;2.50;;;;;;;18.89;50.15;101606.56;4939101;28;97504;-50
2022/09/06 07:58:27;;;;;;;2.47;1.73;;;;;;;18.77;50.25;101593.28;4930978;28;100577;-49
2022/09/06 08:00:53;;;;;;;2.90;2.40;;;;;;;18.60;50.83;101576.78;4937117;28;96887;-49
2022/09/06 08:03:18;;;;;;;2.90;2.70;;;;;;;18.46;50.95;101577.94;4932231;28;97542;-48
2022/09/06 08:05:48;;;;;;;5.90;2.50;;;;;;;18.41;51.43;101585.06;4936326;28;98098;-47
2022/09/06 08:08:13;;;;;;;2.60;2.40;;;;;;;18.42;51.14;101583.78;4934724;28;97322;-47
2022/09/06 08:10:38;;;;;;;12.03;2.80;;;;;;;18.37;51.27;101592.22;4937560;28;97425;-48
2022/09/06 08:13:03;;;;;;;2.80;2.50;;;;;;;18.34;51.43;101585.66;4933817;28;97274;-48
2022/09/06 08:15:30;;;;;;;2.50;2.10;;;;;;;18.37;51.46;101581.09;4949147;28;118382;-47
2022/09/06 08:17:56;;;;;;;5.13;2.67;;;;;;;18.42;51.83;101592.16;4934509;28;97739;-47
2022/09/06 08:20:21;;;;;;;2.77;2.57;;;;;;;18.48;51.71;101594.88;4937146;28;97127;-47
2022/09/06 08:22:46;;;;;;;2.43;2.23;;;;;;;18.50;51.92;101592.34;4938196;28;100734;-47
2022/09/06 08:25:11;;;;;;;2.60;2.00;;;;;;;18.54;51.97;101582.41;4943141;28;112872;-47
2022/09/06 08:27:37;;;;;;;2.37;2.17;;;;;;;18.58;52.02;101580.09;4940660;28;97268;-47
2022/09/06 08:30:03;;;;;;;2.47;2.27;;;;;;;18.60;51.91;101579.56;4942259;28;96938;-48
2022/09/06 08:32:33;;;;;;;4.97;2.40;;;;;;;18.63;52.56;101568.09;4953261;28;97125;-47
2022/09/06 08:34:58;;;;;;;2.93;2.00;;;;;;;18.69;52.33;101573.63;4948846;28;102390;-47
2022/09/06 08:37:23;;;;;;;2.50;2.30;;;;;;;18.72;52.40;101569.75;4934917;28;97382;-49
2022/09/06 08:39:48;;;;;;;2.40;2.30;;;;;;;18.78;52.66;101575.28;4936679;28;101808;-48
2022/09/06 08:42:14;;;;;;;2.70;2.50;;;;;;;18.82;52.22;101573.69;4948503;28;97667;-49
2022/09/06 08:44:47;;;;;;;2.60;2.33;;;;;;;18.88;53.13;101587.53;4930232;28;100800;-48
2022/09/06 08:47:17;;;;;;;2.40;2.30;;;;;;;18.92;52.74;101594.34;4932472;28;102494;-48
2022/09/06 08:49:48;;;;;;;2.83;2.37;;;;;;;18.97;53.29;101590.72;4952020;28;96719;-49
2022/09/06 08:52:39;;;;;;;3.60;2.57;;;;;;;19.03;53.76;101599.00;4944964;28;97768;-49
2022/09/06 08:55:32;;;;;;;3.63;2.10;;;;;;;19.05;54.57;101615.97;4936379;28;100537;-48
2022/09/06 08:58:21;;;;;;;4.63;2.43;;;;;;;19.05;52.98;101632.69;4930718;28;101742;-49
2022/09/06 09:00:57;;;;;;;4.93;2.37;;;;;;;19.04;53.62;101606.09;4925205;28;96932;-49
2022/09/06 09:03:30;;;;;;;2.40;2.20;;;;;;;19.02;53.43;101605.88;4924825;28;96924;-48
2022/09/06 09:05:56;;;;;;;3.40;2.60;;;;;;;19.05;53.06;101608.34;4938448;28;102244;-48
2022/09/06 09:08:31;;;;;;;8.70;3.23;;;;;;;19.06;53.38;101593.13;4942620;28;97508;-48
2022/09/06 09:10:59;;;;;;;3.83;2.53;;;;;;;19.05;53.30;101586.03;4933819;28;97254;-48
2022/09/06 09:13:34;;;;;;;2.80;2.50;;;;;;;18.99;54.60;101573.44;4927496;28;97412;-48
2022/09/06 09:16:00;;;;;;;2.13;2.03;;;;;;;18.95;53.40;101570.22;4936594;28;97824;-48
2022/09/06 09:18:32;;;;;;;4.33;2.40;;;;;;;18.90;54.19;101559.88;4927748;28;97355;-48
2022/09/06 09:20:58;;;;;;;2.73;2.53;;;;;;;18.87;53.71;101552.59;4938587;28;96954;-48
2022/09/06 09:23:24;;;;;;;4.03;3.10;;;;;;;18.82;53.79;101556.97;4934213;28;97189;-48
2022/09/06 09:25:51;;;;;;;3.53;2.63;;;;;;;18.80;53.90;101565.09;4929472;28;97519;-49
2022/09/06 09:28:21;;;;;;;2.33;2.20;;;;;;;18.77;54.04;101574.50;4937975;28;98673;-48
2022/09/06 09:30:55;;;;;;;2.20;2.10;;;;;;;18.77;55.06;101568.19;4941250;28;97022;-48
2022/09/06 09:33:38;;;;;;;3.67;2.60;;;;;;;18.75;54.20;101582.66;4931786;28;97411;-48
2022/09/06 09:36:08;;;;;;;2.73;2.37;;;;;;;18.73;54.51;101593.59;4941262;28;100362;-48
2022/09/06 09:38:43;;;;;;;3.10;2.87;;;;;;;18.77;55.63;101593.28;4941267;28;97185;-48
2022/09/06 09:41:22;;;;;;;2.87;2.60;;;;;;;18.75;54.53;101571.50;4939325;28;97227;-49
2022/09/06 09:44:14;;;;;;;2.70;2.50;;;;;;;18.64;55.96;101550.09;4925538;28;96905;-48
2022/09/06 09:46:40;;;;;;;2.70;2.50;;;;;;;18.58;54.72;101548.66;4947301;28;103406;-49
2022/09/06 09:49:23;;;;;;;2.63;2.40;;;;;;;18.59;54.77;101558.53;4937831;28;97384;-48
2022/09/06 09:52:08;;;;;;;3.83;2.20;;;;;;;18.58;56.24;101559.81;4941994;28;97400;-48
2022/09/06 09:54:39;;;;;;;2.70;2.50;;;;;;;18.56;55.22;101551.22;4923483;28;97703;-48
2022/09/06 09:57:10;;;;;;;2.70;2.50;;;;;;;18.54;55.19;101545.44;4945858;28;97246;-48
2022/09/06 09:59:35;;;;;;;2.53;2.17;;;;;;;18.49;54.66;101533.06;4927473;28;98351;-48
2022/09/06 10:02:15;;;;;;;2.40;2.23;;;;;;;18.40;54.73;101519.47;4939152;28;96883;-48
2022/09/06 10:04:45;;;;;;;3.00;2.80;;;;;;;18.28;55.43;101506.94;4935595;28;97111;-48
2022/09/06 10:07:21;;;;;;;4.37;3.03;;;;;;;18.20;55.07;101506.03;4924819;28;97549;-48
2022/09/06 10:09:49;;;;;;;4.80;2.67;;;;;;;18.17;55.25;101504.31;4934212;28;97191;-48
2022/09/06 10:12:37;;;;;;;2.57;2.23;;;;;;;18.10;56.92;101509.72;4944995;28;97767;-48
2022/09/06 10:15:05;;;;;;;2.37;2.27;;;;;;;18.09;55.38;101519.34;4925514;28;96894;-49
2022/09/06 10:17:47;;;;;;;3.93;2.47;;;;;;;18.08;57.97;101528.97;4937053;28;98991;-48
2022/09/06 10:20:13;;;;;;;2.83;2.60;;;;;;;18.00;55.69;101533.63;4945482;28;100226;-49
2022/09/06 10:22:57;;;;;;;2.97;2.47;;;;;;;18.05;55.81;101553.06;4947479;28;97552;-49
2022/09/06 10:25:41;;;;;;;2.83;2.30;;;;;;;18.10;55.70;101566.19;4933534;28;97468;-48
2022/09/06 10:28:18;;;;;;;2.37;2.20;;;;;;;18.12;55.86;101558.06;4932962;28;100557;-49
2022/09/06 10:30:58;;;;;;;3.23;2.80;;;;;;;18.14;56.88;101574.22;4929824;28;100323;-47
2022/09/06 10:33:41;;;;;;;3.30;2.10;;;;;;;18.19;56.37;101562.28;4944808;28;97127;-48
2022/09/06 10:36:07;;;;;;;3.73;2.17;;;;;;;18.19;55.53;101556.72;4934280;28;96844;-49
2022/09/06 10:38:54;;;;;;;2.90;2.70;;;;;;;18.17;57.60;101537.75;4932167;28;97491;-48
2022/09/06 10:42:05;;;;;;;2.90;2.70;;;;;;;18.22;57.72;101545.28;4936495;28;101802;-48
2022/09/06 10:44:49;;;;;;;3.63;1.80;;;;;;;18.30;57.42;101551.03;4947881;28;97137;-47
2022/09/06 10:47:14;;;;;;;3.40;2.40;;;;;;;18.34;56.31;101580.09;4950758;28;96888;-49
2022/09/06 10:49:44;;;;;;;4.07;2.60;;;;;;;18.41;56.51;101582.28;4934859;28;97886;-49
2022/09/06 10:52:15;;;;;;;2.90;2.60;;;;;;;18.47;56.37;101580.22;4940784;28;97961;-49
2022/09/06 10:54:41;;;;;;;2.73;2.53;;;;;;;18.48;56.10;101578.16;4935881;28;96667;-50
2022/09/06 10:57:33;;;;;;;2.60;2.40;;;;;;;18.41;57.83;101545.31;4933280;28;97618;-47
2022/09/06 11:00:11;;;;;;;2.80;2.50;;;;;;;18.39;56.60;101525.59;4940146;28;100877;-48
2022/09/06 11:03:02;;;;;;;3.07;2.63;;;;;;;18.36;58.84;101518.25;4946990;28;103112;-48
2022/09/06 11:05:41;;;;;;;2.50;2.40;;;;;;;18.40;57.67;101504.78;4940549;28;96970;-49
2022/09/06 11:08:15;;;;;;;2.43;2.23;;;;;;;18.47;57.24;101504.22;4927564;28;103774;-49
2022/09/06 11:10:44;;;;;;;4.07;2.77;;;;;;;18.57;56.96;101505.34;4956255;28;97831;-49
2022/09/06 11:13:21;;;;;;;2.87;2.60;;;;;;;18.70;57.87;101497.06;4947418;28;98304;-48
2022/09/06 11:15:54;;;;;;;3.10;2.90;;;;;;;18.76;57.18;101494.97;4936543;28;96912;-49
2022/09/06 11:18:35;;;;;;;3.37;2.30;;;;;;;18.84;58.48;101476.31;4943714;28;97739;-49
2022/09/06 11:21:40;;;;;;;3.00;2.63;;;;;;;18.92;59.02;101488.34;4940891;28;97723;-48
2022/09/06 11:24:14;;;;;;;3.30;2.80;;;;;;;19.03;57.87;101493.78;4938261;28;101298;-48
2022/09/06 11:27:01;;;;;;;5.43;2.40;;;;;;;19.10;57.12;101495.19;4940183;28;97313;-48
2022/09/06 11:29:29;;;;;;;5.60;2.47;;;;;;;19.17;56.80;101492.53;4946496;28;96954;-50
2022/09/06 11:31:57;;;;;;;2.33;2.17;;;;;;;19.30;56.99;101508.56;4934042;28;97387;-50
2022/09/06 11:34:29;;;;;;;3.57;2.10;;;;;;;19.48;57.69;101509.81;4924565;28;97276;-49
2022/09/06 11:36:57;;;;;;;3.70;2.60;;;;;;;19.61;56.98;101509.84;4933958;28;96869;-48